createdAt,value
2022-11-13T10:59:20.160Z,16.20
2022-11-13T11:04:42.451Z,20.30
2022-11-13T11:10:28.724Z,20.10
2022-11-13T11:15:58.523Z,19.80
2022-11-13T11:21:26.172Z,19.30
2022-11-13T11:27:16.696Z,18.90
2022-11-13T11:32:45.908Z,18.90
2022-11-13T11:38:13.373Z,18.80
2022-11-13T11:44:16.849Z,20.20
2022-11-13T11:49:39.231Z,20.70
2022-11-13T11:55:19.309Z,20.70
2022-11-13T12:00:51.016Z,19.90
2022-11-13T12:06:45.508Z,19.40
2022-11-13T12:12:45.483Z,20.70
2022-11-13T12:18:36.438Z,21.90
2022-11-13T12:24:29.740Z,22.20
2022-11-13T12:30:16.257Z,21.90
2022-11-13T12:35:39.820Z,21.40
2022-11-13T12:41:13.667Z,21.10
2022-11-13T12:46:41.578Z,21.40
2022-11-13T12:52:17.513Z,21.90
2022-11-13T12:57:48.577Z,22.30
2022-11-13T13:03:12.663Z,22.40
2022-11-13T13:08:40.786Z,21.00
2022-11-13T13:14:11.603Z,19.90
2022-11-13T13:19:36.815Z,18.80
2022-11-13T13:25:02.349Z,17.90
2022-11-13T13:30:26.565Z,17.80
2022-11-13T13:36:26.769Z,17.90
2022-11-13T13:41:52.214Z,19.30
2022-11-13T13:47:40.032Z,21.10
2022-11-13T13:53:02.984Z,20.00
2022-11-13T13:58:35.188Z,18.80
2022-11-13T14:04:15.341Z,17.90
2022-11-13T14:09:39.045Z,17.30
2022-11-13T14:15:05.019Z,16.90
2022-11-13T14:20:28.148Z,16.80
2022-11-13T14:25:52.909Z,16.70
2022-11-13T14:31:16.102Z,16.70
2022-11-13T14:36:40.970Z,16.90
2022-11-13T14:42:02.851Z,16.90
2022-11-13T14:47:29.456Z,16.90
2022-11-13T14:53:37.654Z,16.60
2022-11-13T14:59:09.090Z,16.40
2022-11-13T15:04:36.451Z,16.10
2022-11-13T15:10:03.126Z,15.80
2022-11-13T15:15:30.288Z,15.60
2022-11-13T15:20:52.980Z,15.40
2022-11-13T15:26:16.560Z,15.30
2022-11-13T15:31:43.533Z,15.10
2022-11-13T15:37:25.300Z,15.00
2022-11-13T15:42:49.163Z,14.80
2022-11-13T15:48:14.020Z,14.80
2022-11-13T15:53:36.672Z,14.60
2022-11-13T15:59:00.549Z,14.50
2022-11-13T16:04:30.181Z,14.40
2022-11-13T16:09:57.419Z,14.40
2022-11-13T16:15:22.549Z,14.30
2022-11-13T16:20:45.503Z,14.30
2022-11-13T16:26:32.280Z,14.20
2022-11-13T16:31:55.923Z,14.20
2022-11-13T16:37:23.544Z,14.10
2022-11-13T16:42:46.743Z,14.10
2022-11-13T16:48:15.186Z,14.00
2022-11-13T16:53:39.531Z,14.00
2022-11-13T16:59:02.002Z,14.00
2022-11-13T17:04:25.824Z,14.10
2022-11-13T17:09:58.829Z,14.10
2022-11-13T17:15:26.101Z,14.00
2022-11-13T17:20:52.181Z,14.00
2022-11-13T17:26:15.032Z,14.00
2022-11-13T17:31:37.977Z,14.10
2022-11-13T17:37:02.320Z,14.00
2022-11-13T17:42:25.580Z,14.10
2022-11-13T17:47:48.539Z,14.00
2022-11-13T17:53:11.772Z,14.00
2022-11-13T17:58:44.421Z,14.00
2022-11-13T18:04:07.729Z,14.00
2022-11-13T18:09:30.229Z,13.90
2022-11-13T18:14:55.114Z,13.90
2022-11-13T18:20:18.215Z,13.90
2022-11-13T18:25:40.095Z,13.80
2022-11-13T18:31:07.995Z,13.70
2022-11-13T18:36:32.487Z,13.60
2022-11-13T18:42:00.883Z,13.60
2022-11-13T18:47:26.144Z,13.60
2022-11-13T18:52:50.066Z,13.60
2022-11-13T18:58:13.440Z,13.60
2022-11-13T19:03:37.067Z,13.50
2022-11-13T19:09:04.221Z,13.60
2022-11-13T19:14:27.207Z,13.60
2022-11-13T19:19:53.274Z,13.60
2022-11-13T19:25:16.173Z,13.50
2022-11-13T19:30:47.715Z,13.40
2022-11-13T19:36:18.946Z,13.30
2022-11-13T19:41:43.021Z,13.10
2022-11-13T19:47:05.780Z,12.90
2022-11-13T19:52:29.090Z,12.80
2022-11-13T19:57:52.343Z,12.70
2022-11-13T20:03:14.752Z,12.60
2022-11-13T20:08:38.664Z,12.40
2022-11-13T20:14:01.631Z,12.40
2022-11-13T20:19:24.663Z,12.30
2022-11-13T20:24:48.031Z,12.20
2022-11-13T20:30:12.358Z,12.20
2022-11-13T20:35:34.790Z,12.10
2022-11-13T20:40:57.316Z,12.10
2022-11-13T20:46:21.040Z,12.10
2022-11-13T20:51:43.576Z,12.10
2022-11-13T20:57:06.556Z,12.00
2022-11-13T21:02:31.184Z,11.90
2022-11-13T21:07:54.305Z,11.90
2022-11-13T21:13:16.877Z,11.80
2022-11-13T21:18:40.012Z,11.80
2022-11-13T21:24:02.274Z,11.70
2022-11-13T21:29:27.929Z,11.60
2022-11-13T21:34:54.116Z,11.50
2022-11-13T21:40:19.089Z,11.50
2022-11-13T21:45:42.175Z,11.50
2022-11-13T21:51:05.378Z,11.50
2022-11-13T21:56:31.130Z,11.40
2022-11-13T22:01:53.981Z,11.40
2022-11-13T22:07:17.804Z,11.40
2022-11-13T22:12:41.040Z,11.30
2022-11-13T22:18:04.673Z,11.40
2022-11-13T22:23:29.272Z,11.30
2022-11-13T22:28:53.649Z,11.40
2022-11-13T22:34:19.126Z,11.40
2022-11-13T22:39:42.312Z,11.40
2022-11-13T22:45:10.772Z,11.40
2022-11-13T22:50:42.586Z,11.40
2022-11-13T22:56:07.581Z,11.40
2022-11-13T23:01:33.114Z,11.40
2022-11-13T23:06:57.284Z,11.40
2022-11-13T23:12:20.662Z,11.30
2022-11-13T23:17:43.428Z,11.30
2022-11-13T23:23:06.594Z,11.30
2022-11-13T23:28:29.168Z,11.30
2022-11-13T23:33:52.259Z,11.30
2022-11-13T23:39:15.326Z,11.30
2022-11-13T23:44:38.657Z,11.30
2022-11-13T23:50:02.295Z,11.30
2022-11-13T23:55:25.203Z,11.30
